sensor_id;sensor_type;location;lat;lon;timestamp;pressure;altitude;pressure_sealevel;temperature;humidity
48888;BME280;42598;53.802;-1.632;2023-02-13T00:00:32;102550.26;;;6.84;58.86
48888;BME280;42598;53.802;-1.632;2023-02-13T00:03:00;102549.68;;;7.71;58.44
48888;BME280;42598;53.802;-1.632;2023-02-13T00:05:27;102547.93;;;8.39;56.43
48888;BME280;42598;53.802;-1.632;2023-02-13T00:07:55;102546.66;;;7.82;57.29
48888;BME280;42598;53.802;-1.632;2023-02-13T00:10:22;102542.43;;;7.66;57.75
48888;BME280;42598;53.802;-1.632;2023-02-13T00:12:49;102538.86;;;7.19;59.24
48888;BME280;42598;53.802;-1.632;2023-02-13T00:15:17;102536.93;;;6.68;61.17
48888;BME280;42598;53.802;-1.632;2023-02-13T00:17:44;102538.04;;;6.12;61.96
48888;BME280;42598;53.802;-1.632;2023-02-13T00:20:12;102537.91;;;6.51;62.20
48888;BME280;42598;53.802;-1.632;2023-02-13T00:22:39;102537.46;;;7.07;61.19
48888;BME280;42598;53.802;-1.632;2023-02-13T00:25:06;102538.32;;;5.47;64.26
48888;BME280;42598;53.802;-1.632;2023-02-13T00:27:34;102541.04;;;6.92;62.09
48888;BME280;42598;53.802;-1.632;2023-02-13T00:30:01;102540.08;;;6.58;62.55
48888;BME280;42598;53.802;-1.632;2023-02-13T00:32:28;102538.20;;;7.52;60.11
48888;BME280;42598;53.802;-1.632;2023-02-13T00:34:55;102538.73;;;8.09;58.91
48888;BME280;42598;53.802;-1.632;2023-02-13T00:37:22;102539.52;;;7.82;59.15
48888;BME280;42598;53.802;-1.632;2023-02-13T00:39:50;102543.22;;;5.55;64.05
48888;BME280;42598;53.802;-1.632;2023-02-13T00:42:17;102542.44;;;6.25;63.73
48888;BME280;42598;53.802;-1.632;2023-02-13T00:44:44;102540.62;;;6.17;63.93
48888;BME280;42598;53.802;-1.632;2023-02-13T00:47:12;102538.60;;;6.71;63.37
48888;BME280;42598;53.802;-1.632;2023-02-13T00:49:39;102535.04;;;7.04;61.66
48888;BME280;42598;53.802;-1.632;2023-02-13T00:52:07;102536.75;;;7.35;59.73
48888;BME280;42598;53.802;-1.632;2023-02-13T00:54:34;102536.21;;;7.02;60.80
48888;BME280;42598;53.802;-1.632;2023-02-13T00:57:01;102536.34;;;6.73;61.97
48888;BME280;42598;53.802;-1.632;2023-02-13T00:59:28;102541.42;;;5.61;64.95
48888;BME280;42598;53.802;-1.632;2023-02-13T01:01:55;102541.93;;;6.41;64.38
48888;BME280;42598;53.802;-1.632;2023-02-13T01:04:23;102540.44;;;5.96;65.24
48888;BME280;42598;53.802;-1.632;2023-02-13T01:06:50;102537.55;;;6.07;65.35
48888;BME280;42598;53.802;-1.632;2023-02-13T01:09:18;102540.54;;;5.92;65.05
48888;BME280;42598;53.802;-1.632;2023-02-13T01:11:46;102542.46;;;6.06;64.51
48888;BME280;42598;53.802;-1.632;2023-02-13T01:14:13;102538.47;;;5.70;66.44
48888;BME280;42598;53.802;-1.632;2023-02-13T01:16:40;102531.30;;;5.66;64.85
48888;BME280;42598;53.802;-1.632;2023-02-13T01:19:07;102525.30;;;5.91;63.47
48888;BME280;42598;53.802;-1.632;2023-02-13T01:21:34;102519.77;;;6.23;62.47
48888;BME280;42598;53.802;-1.632;2023-02-13T01:24:03;102517.42;;;6.18;63.31
48888;BME280;42598;53.802;-1.632;2023-02-13T01:26:30;102519.04;;;6.54;62.53
48888;BME280;42598;53.802;-1.632;2023-02-13T01:28:58;102523.02;;;6.50;61.33
48888;BME280;42598;53.802;-1.632;2023-02-13T01:31:25;102526.20;;;6.51;62.83
48888;BME280;42598;53.802;-1.632;2023-02-13T01:33:55;102536.81;;;5.73;64.32
48888;BME280;42598;53.802;-1.632;2023-02-13T01:36:23;102541.15;;;6.82;61.24
48888;BME280;42598;53.802;-1.632;2023-02-13T01:38:52;102543.05;;;6.10;64.24
48888;BME280;42598;53.802;-1.632;2023-02-13T01:41:20;102544.70;;;5.97;64.33
48888;BME280;42598;53.802;-1.632;2023-02-13T01:43:50;102540.14;;;5.68;64.15
48888;BME280;42598;53.802;-1.632;2023-02-13T01:46:23;102539.82;;;5.55;64.74
48888;BME280;42598;53.802;-1.632;2023-02-13T01:48:54;102534.72;;;5.18;65.21
48888;BME280;42598;53.802;-1.632;2023-02-13T01:51:25;102526.42;;;5.12;65.79
48888;BME280;42598;53.802;-1.632;2023-02-13T01:53:59;102529.69;;;5.65;64.51
48888;BME280;42598;53.802;-1.632;2023-02-13T01:56:30;102529.42;;;6.12;62.32
48888;BME280;42598;53.802;-1.632;2023-02-13T01:59:04;102531.26;;;6.66;60.44
48888;BME280;42598;53.802;-1.632;2023-02-13T02:01:33;102524.30;;;5.55;64.37
48888;BME280;42598;53.802;-1.632;2023-02-13T02:04:06;102521.69;;;5.99;62.43
48888;BME280;42598;53.802;-1.632;2023-02-13T02:06:37;102518.92;;;6.20;61.94
48888;BME280;42598;53.802;-1.632;2023-02-13T02:09:10;102519.36;;;5.86;63.03
48888;BME280;42598;53.802;-1.632;2023-02-13T02:11:45;102518.08;;;5.32;65.27
48888;BME280;42598;53.802;-1.632;2023-02-13T02:14:13;102517.99;;;5.84;64.59
48888;BME280;42598;53.802;-1.632;2023-02-13T02:16:41;102522.09;;;5.17;66.78
48888;BME280;42598;53.802;-1.632;2023-02-13T02:19:13;102518.85;;;5.87;64.39
48888;BME280;42598;53.802;-1.632;2023-02-13T02:21:58;102508.92;;;5.77;63.15
48888;BME280;42598;53.802;-1.632;2023-02-13T02:24:58;102506.36;;;6.08;62.17
48888;BME280;42598;53.802;-1.632;2023-02-13T02:27:51;102504.75;;;6.08;61.97
48888;BME280;42598;53.802;-1.632;2023-02-13T02:30:39;102501.79;;;5.94;63.00
48888;BME280;42598;53.802;-1.632;2023-02-13T02:33:17;102490.59;;;5.88;62.58
48888;BME280;42598;53.802;-1.632;2023-02-13T02:35:55;102490.94;;;5.51;63.51
48888;BME280;42598;53.802;-1.632;2023-02-13T02:38:38;102482.91;;;5.58;65.28
48888;BME280;42598;53.802;-1.632;2023-02-13T02:41:09;102488.49;;;5.73;62.96
48888;BME280;42598;53.802;-1.632;2023-02-13T02:43:51;102481.16;;;5.72;63.32
48888;BME280;42598;53.802;-1.632;2023-02-13T02:46:26;102481.93;;;6.67;60.84
48888;BME280;42598;53.802;-1.632;2023-02-13T02:49:00;102481.52;;;6.05;61.13
48888;BME280;42598;53.802;-1.632;2023-02-13T02:51:35;102479.62;;;5.57;62.78
48888;BME280;42598;53.802;-1.632;2023-02-13T02:54:09;102476.51;;;5.70;62.03
48888;BME280;42598;53.802;-1.632;2023-02-13T02:56:41;102474.32;;;6.24;60.98
48888;BME280;42598;53.802;-1.632;2023-02-13T02:59:12;102475.30;;;5.68;63.17
48888;BME280;42598;53.802;-1.632;2023-02-13T03:01:42;102475.26;;;4.90;65.01
48888;BME280;42598;53.802;-1.632;2023-02-13T03:04:17;102470.28;;;5.64;63.98
48888;BME280;42598;53.802;-1.632;2023-02-13T03:06:49;102474.93;;;6.37;61.67
48888;BME280;42598;53.802;-1.632;2023-02-13T03:09:20;102480.30;;;5.66;63.16
48888;BME280;42598;53.802;-1.632;2023-02-13T03:11:52;102478.29;;;6.11;62.19
48888;BME280;42598;53.802;-1.632;2023-02-13T03:14:24;102477.69;;;6.94;61.32
48888;BME280;42598;53.802;-1.632;2023-02-13T03:16:52;102479.72;;;5.36;62.27
48888;BME280;42598;53.802;-1.632;2023-02-13T03:19:30;102479.67;;;5.86;61.01
48888;BME280;42598;53.802;-1.632;2023-02-13T03:22:05;102477.29;;;5.99;62.03
48888;BME280;42598;53.802;-1.632;2023-02-13T03:24:44;102475.89;;;6.33;61.82
48888;BME280;42598;53.802;-1.632;2023-02-13T03:27:22;102476.63;;;5.96;61.42
48888;BME280;42598;53.802;-1.632;2023-02-13T03:29:56;102472.13;;;5.61;62.21
48888;BME280;42598;53.802;-1.632;2023-02-13T03:32:36;102476.02;;;6.27;61.66
48888;BME280;42598;53.802;-1.632;2023-02-13T03:35:18;102475.93;;;6.28;60.18
48888;BME280;42598;53.802;-1.632;2023-02-13T03:37:50;102476.12;;;5.61;61.84
48888;BME280;42598;53.802;-1.632;2023-02-13T03:40:26;102474.55;;;6.85;59.90
48888;BME280;42598;53.802;-1.632;2023-02-13T03:43:02;102474.31;;;7.35;57.86
48888;BME280;42598;53.802;-1.632;2023-02-13T03:45:35;102474.85;;;5.94;60.90
48888;BME280;42598;53.802;-1.632;2023-02-13T03:48:05;102474.43;;;6.81;58.83
48888;BME280;42598;53.802;-1.632;2023-02-13T03:50:35;102473.45;;;7.33;57.24
48888;BME280;42598;53.802;-1.632;2023-02-13T03:53:08;102464.90;;;7.02;57.96
48888;BME280;42598;53.802;-1.632;2023-02-13T03:55:39;102461.98;;;7.26;57.52
48888;BME280;42598;53.802;-1.632;2023-02-13T03:58:11;102458.87;;;4.80;61.50
48888;BME280;42598;53.802;-1.632;2023-02-13T04:00:45;102459.13;;;6.05;59.34
48888;BME280;42598;53.802;-1.632;2023-02-13T04:03:26;102457.78;;;6.88;57.26
48888;BME280;42598;53.802;-1.632;2023-02-13T04:06:00;102454.59;;;6.45;56.34
48888;BME280;42598;53.802;-1.632;2023-02-13T04:08:29;102456.19;;;5.29;62.20
48888;BME280;42598;53.802;-1.632;2023-02-13T04:11:03;102453.74;;;5.92;59.41
48888;BME280;42598;53.802;-1.632;2023-02-13T04:13:34;102448.46;;;5.60;61.68
48888;BME280;42598;53.802;-1.632;2023-02-13T04:16:07;102452.30;;;6.12;59.66
48888;BME280;42598;53.802;-1.632;2023-02-13T04:18:38;102451.10;;;6.71;58.94
48888;BME280;42598;53.802;-1.632;2023-02-13T04:21:06;102449.26;;;6.15;58.22
48888;BME280;42598;53.802;-1.632;2023-02-13T04:23:33;102444.97;;;5.64;59.25
48888;BME280;42598;53.802;-1.632;2023-02-13T04:26:04;102443.87;;;6.79;57.39
48888;BME280;42598;53.802;-1.632;2023-02-13T04:28:32;102449.38;;;6.32;59.36
48888;BME280;42598;53.802;-1.632;2023-02-13T04:30:59;102443.99;;;5.07;61.05
48888;BME280;42598;53.802;-1.632;2023-02-13T04:33:26;102442.39;;;6.33;59.45
48888;BME280;42598;53.802;-1.632;2023-02-13T04:35:53;102442.47;;;6.79;57.88
48888;BME280;42598;53.802;-1.632;2023-02-13T04:38:20;102442.37;;;5.71;60.41
48888;BME280;42598;53.802;-1.632;2023-02-13T04:40:48;102442.30;;;7.21;57.53
48888;BME280;42598;53.802;-1.632;2023-02-13T04:43:15;102446.51;;;6.27;59.48
48888;BME280;42598;53.802;-1.632;2023-02-13T04:45:42;102449.04;;;6.65;58.22
48888;BME280;42598;53.802;-1.632;2023-02-13T04:48:09;102444.39;;;6.65;57.52
48888;BME280;42598;53.802;-1.632;2023-02-13T04:50:37;102448.55;;;7.57;56.05
48888;BME280;42598;53.802;-1.632;2023-02-13T04:53:04;102450.71;;;7.60;55.60
48888;BME280;42598;53.802;-1.632;2023-02-13T04:55:32;102451.72;;;7.17;57.41
48888;BME280;42598;53.802;-1.632;2023-02-13T04:57:58;102453.24;;;6.85;57.01
48888;BME280;42598;53.802;-1.632;2023-02-13T05:00:28;102451.16;;;6.25;58.61
48888;BME280;42598;53.802;-1.632;2023-02-13T05:03:00;102451.20;;;6.59;59.05
48888;BME280;42598;53.802;-1.632;2023-02-13T05:05:30;102447.48;;;6.21;58.93
48888;BME280;42598;53.802;-1.632;2023-02-13T05:07:57;102441.57;;;6.76;58.65
48888;BME280;42598;53.802;-1.632;2023-02-13T05:10:24;102437.79;;;6.94;58.31
48888;BME280;42598;53.802;-1.632;2023-02-13T05:12:51;102440.08;;;6.16;59.35
48888;BME280;42598;53.802;-1.632;2023-02-13T05:15:18;102435.98;;;5.84;59.83
48888;BME280;42598;53.802;-1.632;2023-02-13T05:17:46;102428.08;;;5.57;61.05
48888;BME280;42598;53.802;-1.632;2023-02-13T05:20:13;102426.57;;;6.43;59.43
48888;BME280;42598;53.802;-1.632;2023-02-13T05:22:43;102430.13;;;6.17;58.44
48888;BME280;42598;53.802;-1.632;2023-02-13T05:25:10;102429.80;;;4.01;63.85
48888;BME280;42598;53.802;-1.632;2023-02-13T05:27:38;102428.23;;;5.10;62.94
48888;BME280;42598;53.802;-1.632;2023-02-13T05:30:06;102425.00;;;4.84;62.98
48888;BME280;42598;53.802;-1.632;2023-02-13T05:32:34;102428.99;;;4.37;64.67
48888;BME280;42598;53.802;-1.632;2023-02-13T05:35:01;102430.58;;;4.72;62.07
48888;BME280;42598;53.802;-1.632;2023-02-13T05:37:28;102427.75;;;4.86;64.00
48888;BME280;42598;53.802;-1.632;2023-02-13T05:39:56;102430.63;;;5.83;60.21
48888;BME280;42598;53.802;-1.632;2023-02-13T05:42:24;102431.32;;;5.30;60.75
48888;BME280;42598;53.802;-1.632;2023-02-13T05:44:51;102434.31;;;5.76;60.19
48888;BME280;42598;53.802;-1.632;2023-02-13T05:47:18;102437.57;;;5.18;62.16
48888;BME280;42598;53.802;-1.632;2023-02-13T05:49:45;102440.88;;;5.71;60.38
48888;BME280;42598;53.802;-1.632;2023-02-13T05:52:12;102442.14;;;7.00;57.21
48888;BME280;42598;53.802;-1.632;2023-02-13T05:54:39;102437.55;;;6.61;57.62
48888;BME280;42598;53.802;-1.632;2023-02-13T05:57:05;102439.69;;;6.20;58.77
48888;BME280;42598;53.802;-1.632;2023-02-13T05:59:32;102441.44;;;4.87;62.66
48888;BME280;42598;53.802;-1.632;2023-02-13T06:02:00;102439.61;;;4.86;62.81
48888;BME280;42598;53.802;-1.632;2023-02-13T06:04:27;102436.17;;;5.22;60.83
48888;BME280;42598;53.802;-1.632;2023-02-13T06:06:55;102432.96;;;4.96;61.65
48888;BME280;42598;53.802;-1.632;2023-02-13T06:09:22;102434.38;;;4.25;62.88
48888;BME280;42598;53.802;-1.632;2023-02-13T06:11:49;102432.30;;;5.02;61.35
48888;BME280;42598;53.802;-1.632;2023-02-13T06:14:16;102438.46;;;3.80;64.00
48888;BME280;42598;53.802;-1.632;2023-02-13T06:16:43;102431.54;;;5.78;59.22
48888;BME280;42598;53.802;-1.632;2023-02-13T06:19:10;102435.09;;;5.49;59.53
48888;BME280;42598;53.802;-1.632;2023-02-13T06:21:37;102432.70;;;6.32;57.36
48888;BME280;42598;53.802;-1.632;2023-02-13T06:24:05;102432.24;;;6.10;57.78
48888;BME280;42598;53.802;-1.632;2023-02-13T06:26:33;102434.66;;;5.77;58.56
48888;BME280;42598;53.802;-1.632;2023-02-13T06:29:00;102439.07;;;5.53;60.43
48888;BME280;42598;53.802;-1.632;2023-02-13T06:31:27;102436.90;;;5.23;61.80
48888;BME280;42598;53.802;-1.632;2023-02-13T06:33:54;102438.30;;;6.18;58.99
48888;BME280;42598;53.802;-1.632;2023-02-13T06:36:21;102436.01;;;6.35;58.02
48888;BME280;42598;53.802;-1.632;2023-02-13T06:38:48;102436.60;;;5.17;60.23
48888;BME280;42598;53.802;-1.632;2023-02-13T06:41:15;102433.19;;;5.56;59.59
48888;BME280;42598;53.802;-1.632;2023-02-13T06:43:42;102436.81;;;4.85;61.41
48888;BME280;42598;53.802;-1.632;2023-02-13T06:46:22;102437.26;;;5.06;60.93
48888;BME280;42598;53.802;-1.632;2023-02-13T06:48:49;102438.62;;;4.54;61.44
48888;BME280;42598;53.802;-1.632;2023-02-13T06:51:16;102442.95;;;4.32;62.42
48888;BME280;42598;53.802;-1.632;2023-02-13T06:53:43;102439.85;;;6.57;58.59
48888;BME280;42598;53.802;-1.632;2023-02-13T06:56:10;102438.51;;;4.69;60.56
48888;BME280;42598;53.802;-1.632;2023-02-13T06:58:38;102435.00;;;5.42;58.09
48888;BME280;42598;53.802;-1.632;2023-02-13T07:01:05;102436.40;;;4.28;62.34
48888;BME280;42598;53.802;-1.632;2023-02-13T07:03:32;102433.95;;;5.18;61.82
48888;BME280;42598;53.802;-1.632;2023-02-13T07:05:59;102443.90;;;4.38;63.83
48888;BME280;42598;53.802;-1.632;2023-02-13T07:08:27;102449.15;;;3.79;65.76
48888;BME280;42598;53.802;-1.632;2023-02-13T07:10:54;102444.04;;;5.22;62.89
48888;BME280;42598;53.802;-1.632;2023-02-13T07:13:22;102449.53;;;4.51;62.50
48888;BME280;42598;53.802;-1.632;2023-02-13T07:15:48;102454.17;;;3.44;63.96
48888;BME280;42598;53.802;-1.632;2023-02-13T07:18:15;102447.18;;;5.93;57.93
48888;BME280;42598;53.802;-1.632;2023-02-13T07:20:42;102447.67;;;5.84;57.79
48888;BME280;42598;53.802;-1.632;2023-02-13T07:23:10;102450.52;;;5.07;58.99
48888;BME280;42598;53.802;-1.632;2023-02-13T07:25:38;102452.14;;;4.92;59.97
48888;BME280;42598;53.802;-1.632;2023-02-13T07:28:06;102450.40;;;4.03;60.29
48888;BME280;42598;53.802;-1.632;2023-02-13T07:30:39;102452.63;;;3.34;62.88
48888;BME280;42598;53.802;-1.632;2023-02-13T07:33:08;102442.79;;;4.58;60.66
48888;BME280;42598;53.802;-1.632;2023-02-13T07:35:36;102441.44;;;4.82;58.85
48888;BME280;42598;53.802;-1.632;2023-02-13T07:38:03;102446.50;;;4.02;60.10
48888;BME280;42598;53.802;-1.632;2023-02-13T07:40:30;102444.47;;;5.24;58.67
48888;BME280;42598;53.802;-1.632;2023-02-13T07:42:59;102443.90;;;5.56;57.16
48888;BME280;42598;53.802;-1.632;2023-02-13T07:45:26;102439.38;;;4.14;60.96
48888;BME280;42598;53.802;-1.632;2023-02-13T07:47:54;102436.58;;;5.49;57.72
48888;BME280;42598;53.802;-1.632;2023-02-13T07:50:22;102435.64;;;4.62;59.73
48888;BME280;42598;53.802;-1.632;2023-02-13T07:52:52;102434.30;;;4.09;61.46
48888;BME280;42598;53.802;-1.632;2023-02-13T07:55:20;102428.07;;;5.26;58.91
48888;BME280;42598;53.802;-1.632;2023-02-13T07:57:47;102427.33;;;4.92;59.28
48888;BME280;42598;53.802;-1.632;2023-02-13T08:00:15;102427.40;;;4.74;60.06
48888;BME280;42598;53.802;-1.632;2023-02-13T08:02:43;102423.01;;;3.93;62.62
48888;BME280;42598;53.802;-1.632;2023-02-13T08:05:10;102426.23;;;4.21;60.93
48888;BME280;42598;53.802;-1.632;2023-02-13T08:07:38;102429.17;;;4.52;61.32
48888;BME280;42598;53.802;-1.632;2023-02-13T08:10:07;102427.95;;;2.45;65.47
48888;BME280;42598;53.802;-1.632;2023-02-13T08:12:35;102418.27;;;5.12;60.64
48888;BME280;42598;53.802;-1.632;2023-02-13T08:15:02;102417.08;;;5.03;60.13
48888;BME280;42598;53.802;-1.632;2023-02-13T08:17:29;102419.59;;;5.62;58.70
48888;BME280;42598;53.802;-1.632;2023-02-13T08:19:56;102425.64;;;4.93;61.15
48888;BME280;42598;53.802;-1.632;2023-02-13T08:22:24;102425.51;;;3.23;64.30
48888;BME280;42598;53.802;-1.632;2023-02-13T08:24:50;102417.84;;;3.97;63.56
48888;BME280;42598;53.802;-1.632;2023-02-13T08:27:17;102415.26;;;5.55;59.07
48888;BME280;42598;53.802;-1.632;2023-02-13T08:29:44;102419.53;;;5.49;59.83
48888;BME280;42598;53.802;-1.632;2023-02-13T08:32:12;102424.77;;;3.09;64.42
48888;BME280;42598;53.802;-1.632;2023-02-13T08:34:39;102424.28;;;4.54;62.85
48888;BME280;42598;53.802;-1.632;2023-02-13T08:37:06;102424.58;;;5.80;59.92
48888;BME280;42598;53.802;-1.632;2023-02-13T08:39:34;102427.66;;;5.50;61.58
48888;BME280;42598;53.802;-1.632;2023-02-13T08:42:01;102422.80;;;5.86;59.62
48888;BME280;42598;53.802;-1.632;2023-02-13T08:44:29;102418.84;;;5.86;58.29
48888;BME280;42598;53.802;-1.632;2023-02-13T08:46:55;102421.08;;;6.18;56.88
48888;BME280;42598;53.802;-1.632;2023-02-13T08:49:22;102423.85;;;5.04;62.49
48888;BME280;42598;53.802;-1.632;2023-02-13T08:51:49;102426.56;;;5.83;59.02
48888;BME280;42598;53.802;-1.632;2023-02-13T08:54:17;102423.52;;;6.99;56.96
48888;BME280;42598;53.802;-1.632;2023-02-13T08:56:44;102432.73;;;6.24;57.69
48888;BME280;42598;53.802;-1.632;2023-02-13T08:59:11;102437.03;;;5.35;58.86
48888;BME280;42598;53.802;-1.632;2023-02-13T09:01:39;102434.59;;;5.80;59.97
48888;BME280;42598;53.802;-1.632;2023-02-13T09:04:06;102439.84;;;6.73;57.15
48888;BME280;42598;53.802;-1.632;2023-02-13T09:06:33;102440.94;;;5.81;58.96
48888;BME280;42598;53.802;-1.632;2023-02-13T09:08:59;102445.36;;;3.26;65.49
48888;BME280;42598;53.802;-1.632;2023-02-13T09:11:27;102444.46;;;6.40;58.26
48888;BME280;42598;53.802;-1.632;2023-02-13T09:13:54;102449.09;;;7.12;56.38
48888;BME280;42598;53.802;-1.632;2023-02-13T09:16:21;102450.52;;;7.87;54.50
48888;BME280;42598;53.802;-1.632;2023-02-13T09:18:50;102449.43;;;7.17;56.28
48888;BME280;42598;53.802;-1.632;2023-02-13T09:21:18;102446.91;;;6.87;56.64
48888;BME280;42598;53.802;-1.632;2023-02-13T09:23:45;102441.10;;;7.41;56.42
48888;BME280;42598;53.802;-1.632;2023-02-13T09:26:14;102442.37;;;7.70;56.37
48888;BME280;42598;53.802;-1.632;2023-02-13T09:28:42;102441.14;;;4.12;67.02
48888;BME280;42598;53.802;-1.632;2023-02-13T09:31:11;102437.15;;;6.70;60.04
48888;BME280;42598;53.802;-1.632;2023-02-13T09:33:39;102437.67;;;6.25;60.33
48888;BME280;42598;53.802;-1.632;2023-02-13T09:36:07;102435.86;;;7.38;58.64
48888;BME280;42598;53.802;-1.632;2023-02-13T09:38:35;102440.24;;;6.62;58.62
48888;BME280;42598;53.802;-1.632;2023-02-13T09:41:05;102443.85;;;6.37;59.86
48888;BME280;42598;53.802;-1.632;2023-02-13T09:43:36;102442.98;;;8.30;55.80
48888;BME280;42598;53.802;-1.632;2023-02-13T09:46:11;102437.65;;;5.45;62.05
48888;BME280;42598;53.802;-1.632;2023-02-13T09:48:42;102433.24;;;8.04;56.48
48888;BME280;42598;53.802;-1.632;2023-02-13T09:51:14;102429.38;;;6.52;59.83
48888;BME280;42598;53.802;-1.632;2023-02-13T09:53:47;102429.84;;;7.39;58.75
48888;BME280;42598;53.802;-1.632;2023-02-13T09:56:19;102425.47;;;8.80;54.95
48888;BME280;42598;53.802;-1.632;2023-02-13T09:58:48;102420.98;;;9.04;53.53
48888;BME280;42598;53.802;-1.632;2023-02-13T10:01:22;102416.11;;;9.40;53.13
48888;BME280;42598;53.802;-1.632;2023-02-13T10:04:18;102417.47;;;8.43;54.97
48888;BME280;42598;53.802;-1.632;2023-02-13T10:06:52;102417.34;;;8.94;53.56
48888;BME280;42598;53.802;-1.632;2023-02-13T10:09:28;102420.51;;;8.51;54.94
48888;BME280;42598;53.802;-1.632;2023-02-13T10:12:16;102418.69;;;9.02;53.67
48888;BME280;42598;53.802;-1.632;2023-02-13T10:14:56;102413.14;;;8.89;53.66
48888;BME280;42598;53.802;-1.632;2023-02-13T10:17:31;102413.12;;;9.24;53.01
48888;BME280;42598;53.802;-1.632;2023-02-13T10:20:02;102416.76;;;8.37;54.56
48888;BME280;42598;53.802;-1.632;2023-02-13T10:22:34;102417.14;;;8.51;54.46
48888;BME280;42598;53.802;-1.632;2023-02-13T10:25:07;102411.45;;;8.86;54.05
48888;BME280;42598;53.802;-1.632;2023-02-13T10:27:39;102418.04;;;7.34;57.10
48888;BME280;42598;53.802;-1.632;2023-02-13T10:30:18;102416.99;;;8.77;55.28
48888;BME280;42598;53.802;-1.632;2023-02-13T10:32:54;102421.38;;;8.56;54.72
48888;BME280;42598;53.802;-1.632;2023-02-13T10:35:29;102430.05;;;8.17;55.48
48888;BME280;42598;53.802;-1.632;2023-02-13T10:37:59;102429.74;;;8.81;55.42
48888;BME280;42598;53.802;-1.632;2023-02-13T10:40:31;102431.83;;;9.05;52.87
48888;BME280;42598;53.802;-1.632;2023-02-13T10:43:06;102433.44;;;8.27;55.69
48888;BME280;42598;53.802;-1.632;2023-02-13T10:46:13;102429.60;;;8.74;54.87
48888;BME280;42598;53.802;-1.632;2023-02-13T10:48:58;102433.26;;;8.27;55.83
48888;BME280;42598;53.802;-1.632;2023-02-13T10:51:29;102429.16;;;8.55;54.99
48888;BME280;42598;53.802;-1.632;2023-02-13T10:54:18;102429.52;;;9.26;53.51
48888;BME280;42598;53.802;-1.632;2023-02-13T10:56:54;102421.32;;;8.46;55.81
48888;BME280;42598;53.802;-1.632;2023-02-13T10:59:36;102418.75;;;8.42;55.01
48888;BME280;42598;53.802;-1.632;2023-02-13T11:02:20;102413.20;;;8.41;54.97
48888;BME280;42598;53.802;-1.632;2023-02-13T11:04:50;102400.87;;;8.61;54.89
48888;BME280;42598;53.802;-1.632;2023-02-13T11:07:20;102398.16;;;9.17;54.25
48888;BME280;42598;53.802;-1.632;2023-02-13T11:09:52;102392.03;;;9.59;53.04
48888;BME280;42598;53.802;-1.632;2023-02-13T11:12:26;102385.87;;;8.91;54.88
48888;BME280;42598;53.802;-1.632;2023-02-13T11:14:55;102390.00;;;7.66;57.37
48888;BME280;42598;53.802;-1.632;2023-02-13T11:17:23;102383.50;;;9.58;54.13
48888;BME280;42598;53.802;-1.632;2023-02-13T11:19:53;102384.75;;;9.22;55.05
48888;BME280;42598;53.802;-1.632;2023-02-13T11:22:31;102384.28;;;8.40;56.81
48888;BME280;42598;53.802;-1.632;2023-02-13T11:25:03;102381.38;;;8.58;55.68
48888;BME280;42598;53.802;-1.632;2023-02-13T11:27:34;102375.07;;;9.14;54.42
48888;BME280;42598;53.802;-1.632;2023-02-13T11:30:05;102379.82;;;9.23;54.56
48888;BME280;42598;53.802;-1.632;2023-02-13T11:32:34;102377.68;;;8.16;58.42
48888;BME280;42598;53.802;-1.632;2023-02-13T11:35:26;102372.90;;;7.84;59.76
48888;BME280;42598;53.802;-1.632;2023-02-13T11:38:12;102373.68;;;7.59;60.32
48888;BME280;42598;53.802;-1.632;2023-02-13T11:40:48;102374.79;;;8.16;59.67
48888;BME280;42598;53.802;-1.632;2023-02-13T11:43:19;102373.25;;;6.69;63.83
48888;BME280;42598;53.802;-1.632;2023-02-13T11:46:03;102375.32;;;7.07;64.34
48888;BME280;42598;53.802;-1.632;2023-02-13T11:48:31;102371.62;;;7.52;63.45
48888;BME280;42598;53.802;-1.632;2023-02-13T11:50:58;102372.91;;;7.00;64.01
48888;BME280;42598;53.802;-1.632;2023-02-13T11:53:29;102372.03;;;7.92;62.48
48888;BME280;42598;53.802;-1.632;2023-02-13T11:56:08;102372.86;;;7.15;65.09
48888;BME280;42598;53.802;-1.632;2023-02-13T11:58:36;102368.60;;;7.41;64.73
48888;BME280;42598;53.802;-1.632;2023-02-13T12:01:14;102363.84;;;6.90;66.41
48888;BME280;42598;53.802;-1.632;2023-02-13T12:04:03;102363.93;;;6.44;69.15
48888;BME280;42598;53.802;-1.632;2023-02-13T12:06:32;102358.79;;;7.25;66.47
48888;BME280;42598;53.802;-1.632;2023-02-13T12:09:00;102363.17;;;6.71;68.45
48888;BME280;42598;53.802;-1.632;2023-02-13T12:11:35;102358.42;;;6.84;67.26
48888;BME280;42598;53.802;-1.632;2023-02-13T12:14:02;102352.91;;;6.76;67.82
48888;BME280;42598;53.802;-1.632;2023-02-13T12:16:34;102358.76;;;6.26;70.73
48888;BME280;42598;53.802;-1.632;2023-02-13T12:19:06;102351.52;;;7.35;67.13
48888;BME280;42598;53.802;-1.632;2023-02-13T12:21:47;102351.23;;;6.26;70.64
48888;BME280;42598;53.802;-1.632;2023-02-13T12:24:28;102346.16;;;5.91;71.52
48888;BME280;42598;53.802;-1.632;2023-02-13T12:27:05;102345.38;;;6.30;70.30
48888;BME280;42598;53.802;-1.632;2023-02-13T12:29:50;102339.41;;;6.07;71.51
48888;BME280;42598;53.802;-1.632;2023-02-13T12:32:31;102336.24;;;6.71;69.85
48888;BME280;42598;53.802;-1.632;2023-02-13T12:35:20;102336.10;;;6.68;69.51
48888;BME280;42598;53.802;-1.632;2023-02-13T12:38:01;102339.88;;;6.41;69.10
48888;BME280;42598;53.802;-1.632;2023-02-13T12:40:43;102333.44;;;6.89;67.95
48888;BME280;42598;53.802;-1.632;2023-02-13T12:43:42;102330.31;;;7.04;66.20
48888;BME280;42598;53.802;-1.632;2023-02-13T12:46:23;102331.74;;;6.77;66.56
48888;BME280;42598;53.802;-1.632;2023-02-13T12:49:02;102315.94;;;8.13;62.05
48888;BME280;42598;53.802;-1.632;2023-02-13T12:51:42;102315.71;;;7.91;62.05
48888;BME280;42598;53.802;-1.632;2023-02-13T12:54:24;102319.72;;;7.23;63.63
48888;BME280;42598;53.802;-1.632;2023-02-13T12:57:05;102319.02;;;6.98;64.72
48888;BME280;42598;53.802;-1.632;2023-02-13T12:59:45;102314.90;;;8.11;62.83
48888;BME280;42598;53.802;-1.632;2023-02-13T13:02:43;102316.41;;;8.31;61.61
48888;BME280;42598;53.802;-1.632;2023-02-13T13:05:24;102306.90;;;8.06;61.39
48888;BME280;42598;53.802;-1.632;2023-02-13T13:08:05;102302.31;;;7.43;62.05
48888;BME280;42598;53.802;-1.632;2023-02-13T13:10:47;102300.98;;;8.20;60.37